createdAt,value
2023-02-28T00:03:38.233Z,4.68
2023-02-28T00:08:40.331Z,5.30
2023-02-28T00:13:47.374Z,5.80
2023-02-28T00:18:49.727Z,4.93
2023-02-28T00:23:51.164Z,5.10
2023-02-28T00:28:53.749Z,5.45
2023-02-28T00:33:55.204Z,5.60
2023-02-28T00:38:56.662Z,6.22
2023-02-28T00:43:58.069Z,5.53
2023-02-28T00:48:59.538Z,5.28
2023-02-28T00:54:00.971Z,4.95
2023-02-28T00:59:02.467Z,5.57
2023-02-28T01:04:04.167Z,5.53
2023-02-28T01:09:07.356Z,5.20
2023-02-28T01:19:12.433Z,5.18
2023-02-28T01:24:13.970Z,5.57
2023-02-28T01:29:16.202Z,5.70
2023-02-28T01:34:19.983Z,4.93
2023-02-28T01:39:21.433Z,5.43
2023-02-28T01:45:00.712Z,4.90
2023-02-28T01:50:06.781Z,4.95
2023-02-28T01:55:09.287Z,4.95
2023-02-28T02:00:14.101Z,6.13
2023-02-28T02:05:24.554Z,5.68
2023-02-28T02:10:33.370Z,5.68
2023-02-28T02:15:43.016Z,5.30
2023-02-28T02:21:16.676Z,5.10
2023-02-28T02:26:30.321Z,5.15
2023-02-28T02:31:57.696Z,5.68
2023-02-28T02:37:06.307Z,6.00
2023-02-28T02:42:16.938Z,5.72
2023-02-28T02:47:22.572Z,5.68
2023-02-28T02:52:30.782Z,5.25
2023-02-28T02:57:41.360Z,5.68
2023-02-28T03:02:45.546Z,5.88
2023-02-28T03:07:46.985Z,5.63
2023-02-28T03:13:20.013Z,5.13
2023-02-28T03:18:52.503Z,5.45
2023-02-28T03:24:06.144Z,5.18
2023-02-28T03:29:22.225Z,5.93
2023-02-28T03:34:30.386Z,6.13
2023-02-28T03:39:43.057Z,5.35
2023-02-28T03:45:21.942Z,5.55
2023-02-28T03:50:28.419Z,5.78
2023-02-28T03:55:35.577Z,5.88
2023-02-28T04:00:40.166Z,6.43
2023-02-28T04:05:50.974Z,6.07
2023-02-28T04:11:18.048Z,6.93
2023-02-28T04:16:34.000Z,5.70
2023-02-28T04:21:39.972Z,6.03
2023-02-28T04:26:47.955Z,7.25
2023-02-28T04:31:49.816Z,6.45
2023-02-28T04:37:10.057Z,6.93
2023-02-28T04:42:14.162Z,7.53
2023-02-28T04:47:15.701Z,6.65
2023-02-28T04:52:17.113Z,7.47
2023-02-28T04:57:18.560Z,7.10
2023-02-28T05:02:21.959Z,7.78
2023-02-28T05:07:23.409Z,7.80
2023-02-28T05:12:24.868Z,7.72
2023-02-28T05:17:26.265Z,7.28
2023-02-28T05:22:27.711Z,8.77
2023-02-28T05:27:29.221Z,8.63
2023-02-28T05:32:30.833Z,8.73
2023-02-28T05:37:32.294Z,7.22
2023-02-28T05:42:34.515Z,7.85
2023-02-28T05:47:36.359Z,8.18
2023-02-28T05:52:38.248Z,9.18
2023-02-28T05:57:39.654Z,8.60
2023-02-28T06:02:41.616Z,8.88
2023-02-28T06:07:44.018Z,7.95
2023-02-28T06:12:45.452Z,7.70
2023-02-28T06:17:47.393Z,9.32
2023-02-28T06:22:51.603Z,7.35
2023-02-28T06:27:53.775Z,8.02
2023-02-28T06:32:55.632Z,8.68
2023-02-28T06:37:57.175Z,8.25
2023-02-28T06:42:58.582Z,7.70
2023-02-28T06:48:01.084Z,9.05
2023-02-28T06:53:02.492Z,8.53
2023-02-28T06:58:03.911Z,9.07
2023-02-28T07:03:05.307Z,8.68
2023-02-28T07:08:07.024Z,9.50
2023-02-28T07:13:09.763Z,8.02
2023-02-28T07:18:11.189Z,8.52
2023-02-28T07:23:12.586Z,8.15
2023-02-28T07:28:15.034Z,8.80
2023-02-28T07:33:16.446Z,8.63
2023-02-28T07:38:17.907Z,8.82
2023-02-28T07:43:19.300Z,9.48
2023-02-28T07:48:20.694Z,8.75
2023-02-28T07:53:22.147Z,8.77
2023-02-28T07:58:24.792Z,8.75
2023-02-28T08:03:26.212Z,9.65
2023-02-28T08:08:32.051Z,8.85
2023-02-28T08:13:33.470Z,8.82
2023-02-28T08:18:34.962Z,8.13
2023-02-28T08:23:37.115Z,8.20
2023-02-28T08:28:38.579Z,8.45
2023-02-28T08:33:41.209Z,8.75
2023-02-28T08:38:42.599Z,8.45
2023-02-28T08:43:44.181Z,9.00
2023-02-28T08:48:46.072Z,9.23
2023-02-28T08:53:50.176Z,9.10
2023-02-28T08:58:52.131Z,8.75
2023-02-28T09:09:01.965Z,7.78
2023-02-28T09:14:04.367Z,8.13
2023-02-28T09:19:05.860Z,7.83
2023-02-28T09:24:08.015Z,8.15
2023-02-28T09:29:09.719Z,8.32
2023-02-28T09:34:11.210Z,7.68
2023-02-28T09:39:15.369Z,8.05
2023-02-28T09:44:42.363Z,7.63
2023-02-28T09:49:47.903Z,7.38
2023-02-28T09:54:49.370Z,7.55
2023-02-28T10:00:19.592Z,7.25
2023-02-28T10:05:27.328Z,7.20
2023-02-28T10:10:35.854Z,6.63
2023-02-28T10:15:37.575Z,7.07
2023-02-28T10:20:41.961Z,8.95
2023-02-28T10:25:48.956Z,7.22
2023-02-28T10:30:53.206Z,6.55
2023-02-28T10:35:55.128Z,6.93
2023-02-28T10:41:06.520Z,5.93
2023-02-28T10:46:10.720Z,6.30
2023-02-28T10:51:14.759Z,8.07
2023-02-28T10:56:19.629Z,7.30
2023-02-28T11:01:39.573Z,7.85
2023-02-28T11:06:41.226Z,7.40
2023-02-28T11:11:48.107Z,7.00
2023-02-28T11:16:51.252Z,7.80
2023-02-28T11:26:58.044Z,8.15
2023-02-28T11:32:02.392Z,8.70
2023-02-28T11:37:06.290Z,8.30
2023-02-28T11:42:54.535Z,8.30
2023-02-28T11:48:10.881Z,7.68
2023-02-28T11:53:30.579Z,8.98
2023-02-28T11:58:53.754Z,8.25
2023-02-28T12:04:17.806Z,8.23
2023-02-28T12:09:48.332Z,8.50
2023-02-28T12:15:17.967Z,8.32
2023-02-28T12:20:32.662Z,8.15
2023-02-28T12:26:08.026Z,8.40
2023-02-28T12:31:22.739Z,8.73
2023-02-28T12:36:26.627Z,8.35
2023-02-28T12:41:38.475Z,8.57
2023-02-28T12:46:45.021Z,7.35
2023-02-28T12:51:47.777Z,7.72
2023-02-28T12:56:54.067Z,8.30
2023-02-28T13:02:23.299Z,8.13
2023-02-28T13:07:37.962Z,7.80
2023-02-28T13:12:49.274Z,7.25
2023-02-28T13:17:56.896Z,7.68
2023-02-28T13:22:58.702Z,8.13
2023-02-28T13:28:04.830Z,9.00
2023-02-28T13:33:29.659Z,8.55
2023-02-28T13:38:36.989Z,9.85
2023-02-28T13:44:03.580Z,9.88
2023-02-28T13:49:26.340Z,9.63
2023-02-28T13:54:56.786Z,9.02
2023-02-28T14:00:32.902Z,9.45
2023-02-28T14:05:35.187Z,10.13
2023-02-28T14:10:46.573Z,9.03
2023-02-28T14:15:56.090Z,9.40
2023-02-28T14:21:26.564Z,11.68
2023-02-28T14:26:45.210Z,9.55
2023-02-28T14:31:59.284Z,10.45
2023-02-28T14:37:03.389Z,10.48
2023-02-28T14:42:32.321Z,10.55
2023-02-28T14:47:36.205Z,10.10
2023-02-28T14:52:37.738Z,9.82
2023-02-28T14:57:54.248Z,10.27
2023-02-28T15:02:57.423Z,12.02
2023-02-28T15:13:20.041Z,9.45
2023-02-28T15:18:21.420Z,10.07
2023-02-28T15:23:23.403Z,8.98
2023-02-28T15:28:25.382Z,9.25
2023-02-28T15:33:32.221Z,10.57
2023-02-28T15:38:36.973Z,10.57
2023-02-28T15:43:40.995Z,9.77
2023-02-28T15:48:52.797Z,10.65
2023-02-28T15:54:01.461Z,10.90
2023-02-28T15:59:07.307Z,11.07
2023-02-28T16:04:18.691Z,11.02
2023-02-28T16:09:20.276Z,10.80
2023-02-28T16:14:31.645Z,13.20
2023-02-28T16:19:34.608Z,10.25
2023-02-28T16:29:38.227Z,11.18
2023-02-28T16:34:39.683Z,11.15
2023-02-28T16:39:42.426Z,11.52
2023-02-28T16:44:44.046Z,10.35
2023-02-28T16:49:45.657Z,11.32
2023-02-28T16:54:47.050Z,11.07
2023-02-28T16:59:51.523Z,11.38
2023-02-28T17:04:52.932Z,12.00
2023-02-28T17:09:54.522Z,11.60
2023-02-28T17:14:55.981Z,11.95
2023-02-28T17:19:57.491Z,11.82
2023-02-28T17:24:59.830Z,12.60
2023-02-28T17:30:01.858Z,13.17
2023-02-28T17:35:03.450Z,13.43
2023-02-28T17:40:05.874Z,13.93
2023-02-28T17:45:07.903Z,13.20
2023-02-28T17:50:16.604Z,12.77
2023-02-28T17:55:19.825Z,11.85
2023-02-28T18:05:26.305Z,12.40
2023-02-28T18:10:28.146Z,12.68
2023-02-28T18:15:29.574Z,14.25
2023-02-28T18:20:31.079Z,14.00
2023-02-28T18:25:32.542Z,13.68
2023-02-28T18:30:37.692Z,13.80
2023-02-28T18:35:39.936Z,13.32
2023-02-28T18:40:42.940Z,14.57
2023-02-28T18:45:44.441Z,15.68
2023-02-28T18:50:47.062Z,15.82
2023-02-28T18:55:48.501Z,15.15
2023-02-28T19:00:50.065Z,14.38
2023-02-28T19:05:59.829Z,14.77
2023-02-28T19:11:10.511Z,17.02
2023-02-28T19:16:14.030Z,19.15
2023-02-28T19:21:18.088Z,17.38
2023-02-28T19:26:22.704Z,17.05
2023-02-28T19:31:25.971Z,17.55
2023-02-28T19:36:28.389Z,17.70
2023-02-28T19:41:30.256Z,17.30
2023-02-28T19:46:32.039Z,17.38
2023-02-28T19:51:34.268Z,19.50
2023-02-28T19:56:35.900Z,15.03
2023-02-28T20:01:38.386Z,13.25
2023-02-28T20:06:39.993Z,14.17
2023-02-28T20:11:41.428Z,14.27
2023-02-28T20:16:44.075Z,14.05
2023-02-28T20:21:45.634Z,14.27
2023-02-28T20:26:47.111Z,15.45
2023-02-28T20:31:48.667Z,15.43
2023-02-28T20:36:50.142Z,16.02
2023-02-28T20:41:51.603Z,14.85
2023-02-28T20:46:53.085Z,13.85
2023-02-28T20:51:54.586Z,13.85
2023-02-28T20:56:56.581Z,15.05
2023-02-28T21:01:58.004Z,15.48
2023-02-28T21:06:59.484Z,14.65
2023-02-28T21:12:00.884Z,17.23
2023-02-28T21:17:02.406Z,14.93
2023-02-28T21:22:04.026Z,15.32
2023-02-28T21:27:05.553Z,16.23
2023-02-28T21:32:07.494Z,14.80
2023-02-28T21:37:10.409Z,14.18
2023-02-28T21:42:12.906Z,14.82
2023-02-28T21:47:14.350Z,14.20
2023-02-28T21:52:15.795Z,14.35
2023-02-28T21:57:17.310Z,15.25
2023-02-28T22:02:18.839Z,14.63
2023-02-28T22:07:20.316Z,14.40
2023-02-28T22:12:21.778Z,14.35
2023-02-28T22:17:23.181Z,15.52
2023-02-28T22:22:25.834Z,13.88
2023-02-28T22:27:27.281Z,14.57
2023-02-28T22:32:28.740Z,15.45
2023-02-28T22:37:30.180Z,15.55
2023-02-28T22:42:34.866Z,14.60
2023-02-28T22:47:36.258Z,14.95
2023-02-28T22:52:40.520Z,14.55
2023-02-28T22:57:42.102Z,13.40
2023-02-28T23:02:44.785Z,13.93
2023-02-28T23:07:46.698Z,14.23
2023-02-28T23:12:51.123Z,13.68
2023-02-28T23:17:52.681Z,13.93
2023-02-28T23:22:54.470Z,13.60
2023-02-28T23:27:56.485Z,14.93
2023-02-28T23:32:58.048Z,15.63
2023-02-28T23:37:59.702Z,15.65
2023-02-28T23:43:01.788Z,13.60
2023-02-28T23:48:04.071Z,13.88
2023-02-28T23:53:05.644Z,15.07
2023-02-28T23:58:07.184Z,14.30
